createdAt,value
2018-08-03T00:01:31.696Z,52.84
2018-08-03T00:04:00.533Z,53.25
2018-08-03T00:06:29.402Z,53.23
2018-08-03T00:08:58.274Z,53.36
2018-08-03T00:11:27.124Z,53.48
2018-08-03T00:13:55.970Z,53.88
2018-08-03T00:16:24.862Z,54.10
2018-08-03T00:18:59.914Z,54.26
2018-08-03T00:21:28.774Z,54.16
2018-08-03T00:23:57.798Z,54.26
2018-08-03T00:26:26.691Z,54.32
2018-08-03T00:28:55.530Z,54.20
2018-08-03T00:31:24.375Z,54.12
2018-08-03T00:33:53.256Z,54.58
2018-08-03T00:36:22.196Z,54.82
2018-08-03T00:38:51.064Z,54.96
2018-08-03T00:41:20.108Z,55.12
2018-08-03T00:43:48.978Z,55.04
2018-08-03T00:46:17.824Z,55.61
2018-08-03T00:48:46.939Z,55.73
2018-08-03T00:51:15.813Z,55.83
2018-08-03T00:53:44.659Z,54.87
2018-08-03T00:56:13.532Z,56.02
2018-08-03T00:58:42.419Z,56.21
2018-08-03T01:01:11.327Z,56.06
2018-08-03T01:03:40.181Z,55.74
2018-08-03T01:06:09.093Z,55.92
2018-08-03T01:08:37.934Z,56.00
2018-08-03T01:11:06.808Z,55.97
2018-08-03T01:13:35.691Z,56.29
2018-08-03T01:16:04.594Z,56.41
2018-08-03T01:18:33.472Z,56.92
2018-08-03T01:21:02.324Z,56.87
2018-08-03T01:23:31.402Z,57.03
2018-08-03T01:26:01.796Z,57.11
2018-08-03T01:28:30.654Z,57.62
2018-08-03T01:30:59.476Z,57.54
2018-08-03T01:33:28.370Z,57.76
2018-08-03T01:35:57.220Z,57.93
2018-08-03T01:38:26.112Z,57.95
2018-08-03T01:40:54.980Z,58.18
2018-08-03T01:43:23.870Z,58.23
2018-08-03T01:45:52.711Z,58.63
2018-08-03T01:48:29.207Z,58.61
2018-08-03T01:50:58.069Z,58.88
2018-08-03T01:53:26.927Z,58.95
2018-08-03T01:55:55.823Z,58.91
2018-08-03T01:58:24.725Z,58.95
2018-08-03T02:00:53.622Z,59.18
2018-08-03T02:03:22.588Z,59.31
2018-08-03T02:05:51.385Z,58.79
2018-08-03T02:08:20.269Z,58.84
2018-08-03T02:10:49.353Z,58.89
2018-08-03T02:13:18.267Z,59.06
2018-08-03T02:15:47.165Z,58.82
2018-08-03T02:18:16.055Z,59.36
2018-08-03T02:20:44.950Z,59.76
2018-08-03T02:23:13.802Z,59.72
2018-08-03T02:25:42.785Z,60.03
2018-08-03T02:28:11.614Z,60.38
2018-08-03T02:30:40.501Z,60.84
2018-08-03T02:33:09.518Z,60.86
2018-08-03T02:35:38.399Z,61.10
2018-08-03T02:38:07.470Z,61.06
2018-08-03T02:40:36.403Z,61.11
2018-08-03T02:43:05.266Z,61.06
2018-08-03T02:45:34.136Z,61.11
2018-08-03T02:48:03.047Z,60.08
2018-08-03T02:50:32.127Z,59.64
2018-08-03T02:53:01.004Z,59.34
2018-08-03T02:55:32.400Z,60.52
2018-08-03T02:58:01.273Z,60.68
2018-08-03T03:00:30.151Z,60.71
2018-08-03T03:02:59.027Z,60.66
2018-08-03T03:05:27.876Z,60.92
2018-08-03T03:07:56.730Z,61.13
2018-08-03T03:10:25.576Z,61.24
2018-08-03T03:12:54.433Z,61.26
2018-08-03T03:15:23.293Z,61.24
2018-08-03T03:17:53.820Z,60.92
2018-08-03T03:20:22.714Z,60.51
2018-08-03T03:22:51.580Z,61.20
2018-08-03T03:25:20.471Z,61.33
2018-08-03T03:27:49.330Z,61.15
2018-08-03T03:30:18.176Z,61.52
2018-08-03T03:32:47.060Z,61.39
2018-08-03T03:35:15.908Z,61.37
2018-08-03T03:37:44.796Z,61.58
2018-08-03T03:40:15.187Z,62.10
2018-08-03T03:42:44.114Z,62.17
2018-08-03T03:45:12.965Z,62.04
2018-08-03T03:47:41.852Z,62.43
2018-08-03T03:50:10.742Z,62.53
2018-08-03T03:52:39.625Z,61.71
2018-08-03T03:55:08.520Z,62.28
2018-08-03T03:57:37.417Z,62.42
2018-08-03T04:00:07.112Z,61.07
2018-08-03T04:02:36.195Z,62.23
2018-08-03T04:05:05.609Z,62.28
2018-08-03T04:07:34.464Z,62.44
2018-08-03T04:10:03.364Z,62.67
2018-08-03T04:12:32.402Z,62.59
2018-08-03T04:15:01.342Z,62.41
2018-08-03T04:17:30.204Z,61.90
2018-08-03T04:19:59.092Z,61.94
2018-08-03T04:22:27.959Z,62.36
2018-08-03T04:24:59.971Z,62.46
2018-08-03T04:27:28.835Z,62.50
2018-08-03T04:29:57.669Z,62.40
2018-08-03T04:32:26.560Z,62.20
2018-08-03T04:34:55.411Z,61.98
2018-08-03T04:37:24.300Z,62.02
2018-08-03T04:39:53.184Z,62.18
2018-08-03T04:42:22.210Z,61.37
2018-08-03T04:44:50.925Z,62.24
2018-08-03T04:47:19.926Z,62.12
2018-08-03T04:49:48.769Z,61.87
2018-08-03T04:52:17.689Z,62.13
2018-08-03T04:54:46.549Z,62.14
2018-08-03T04:57:15.353Z,62.39
2018-08-03T04:59:44.180Z,62.23
2018-08-03T05:02:13.048Z,62.02
2018-08-03T05:04:41.968Z,62.24
2018-08-03T05:07:10.899Z,62.00
2018-08-03T05:09:39.757Z,61.76
2018-08-03T05:12:09.294Z,61.54
2018-08-03T05:14:38.136Z,61.48
2018-08-03T05:17:06.999Z,61.13
2018-08-03T05:19:35.864Z,60.85
2018-08-03T05:22:04.750Z,60.84
2018-08-03T05:24:33.591Z,60.67
2018-08-03T05:27:02.460Z,60.41
2018-08-03T05:29:32.489Z,60.60
2018-08-03T05:32:01.364Z,60.66
2018-08-03T05:34:30.199Z,60.51
2018-08-03T05:36:59.046Z,60.50
2018-08-03T05:39:27.884Z,59.40
2018-08-03T05:41:56.743Z,59.96
2018-08-03T05:44:25.616Z,60.23
2018-08-03T05:46:54.441Z,59.87
2018-08-03T05:49:23.287Z,59.70
2018-08-03T05:51:52.168Z,59.29
2018-08-03T05:54:21.054Z,58.90
2018-08-03T05:56:49.928Z,58.59
2018-08-03T05:59:18.798Z,58.47
2018-08-03T06:01:47.634Z,57.67
2018-08-03T06:04:16.499Z,56.90
2018-08-03T06:06:45.360Z,56.56
2018-08-03T06:09:14.202Z,56.25
2018-08-03T06:11:43.086Z,55.66
2018-08-03T06:14:12.092Z,55.17
2018-08-03T06:16:40.943Z,53.90
2018-08-03T06:19:09.783Z,53.86
2018-08-03T06:21:38.627Z,53.59
2018-08-03T06:24:07.514Z,52.05
2018-08-03T06:26:36.329Z,47.92
2018-08-03T06:29:05.207Z,41.73
2018-08-03T06:31:34.099Z,37.45
2018-08-03T06:34:02.973Z,34.02
2018-08-03T06:36:35.035Z,31.05
2018-08-03T06:39:04.380Z,28.72
2018-08-03T06:41:33.261Z,26.76
2018-08-03T06:44:02.118Z,24.93
2018-08-03T06:46:30.955Z,23.98
2018-08-03T06:48:59.896Z,22.54
2018-08-03T06:51:28.730Z,21.57
2018-08-03T06:53:57.696Z,20.62
2018-08-03T06:56:26.590Z,20.18
2018-08-03T06:58:55.442Z,19.79
2018-08-03T07:01:24.275Z,19.02
2018-08-03T07:03:53.365Z,19.11
2018-08-03T07:06:22.225Z,18.07
2018-08-03T07:08:51.046Z,18.18
2018-08-03T07:11:19.908Z,17.61
2018-08-03T07:13:48.741Z,16.92
2018-08-03T07:16:17.595Z,16.37
2018-08-03T07:18:46.477Z,16.39
2018-08-03T07:21:15.590Z,16.19
2018-08-03T07:23:44.460Z,15.69
2018-08-03T07:26:13.291Z,15.58
2018-08-03T07:28:42.209Z,14.88
2018-08-03T07:31:11.058Z,14.81
2018-08-03T07:33:39.897Z,14.33
2018-08-03T07:36:08.747Z,14.91
2018-08-03T07:38:37.600Z,13.85
2018-08-03T07:41:06.416Z,14.22
2018-08-03T07:43:35.496Z,14.09
2018-08-03T07:46:04.266Z,13.76
2018-08-03T07:48:33.112Z,14.04
2018-08-03T07:51:02.543Z,13.67
2018-08-03T07:53:31.665Z,13.73
2018-08-03T07:56:00.619Z,13.91
2018-08-03T07:58:29.479Z,13.46
2018-08-03T08:00:58.381Z,12.91
2018-08-03T08:03:27.264Z,13.11
2018-08-03T08:05:59.105Z,12.30
2018-08-03T08:08:27.982Z,12.52
2018-08-03T08:10:56.881Z,12.11
2018-08-03T08:13:25.761Z,11.95
2018-08-03T08:15:54.676Z,12.46
2018-08-03T08:18:23.562Z,11.80
2018-08-03T08:20:53.053Z,12.54
2018-08-03T08:23:21.899Z,12.65
2018-08-03T08:25:50.726Z,12.52
2018-08-03T08:28:19.713Z,12.19
2018-08-03T08:30:48.560Z,11.58
2018-08-03T08:33:17.451Z,12.13
2018-08-03T08:35:46.299Z,11.78
2018-08-03T08:38:16.147Z,11.36
2018-08-03T08:40:45.037Z,11.93
2018-08-03T08:43:13.887Z,12.07
2018-08-03T08:45:42.741Z,11.79
2018-08-03T08:48:11.714Z,11.92
2018-08-03T08:50:43.472Z,12.14
2018-08-03T08:53:12.335Z,11.57
2018-08-03T08:55:41.182Z,11.83
2018-08-03T08:58:10.041Z,12.04
2018-08-03T09:00:38.887Z,11.73
2018-08-03T09:03:07.842Z,12.06
2018-08-03T09:05:36.750Z,11.54
2018-08-03T09:08:05.625Z,11.45
2018-08-03T09:10:34.541Z,11.81
2018-08-03T09:13:03.649Z,11.00
2018-08-03T09:15:32.394Z,10.84
2018-08-03T09:18:01.292Z,11.19
2018-08-03T09:20:30.231Z,11.15
2018-08-03T09:22:59.204Z,11.23
2018-08-03T09:25:28.115Z,10.76
2018-08-03T09:27:56.972Z,11.28
2018-08-03T09:30:25.925Z,11.77
2018-08-03T09:32:55.088Z,11.25
2018-08-03T09:35:24.384Z,10.74
2018-08-03T09:37:53.207Z,10.95
2018-08-03T09:40:22.531Z,11.09
2018-08-03T09:42:51.544Z,10.71
2018-08-03T09:45:20.419Z,10.65
2018-08-03T09:47:49.300Z,11.06
2018-08-03T09:50:18.216Z,11.61
2018-08-03T09:52:47.213Z,10.66
2018-08-03T09:55:16.197Z,11.26
2018-08-03T09:57:45.180Z,10.73
2018-08-03T10:00:16.327Z,11.51
2018-08-03T10:02:46.264Z,11.12
2018-08-03T10:05:15.127Z,11.46
2018-08-03T10:07:44.000Z,11.09
2018-08-03T10:10:12.993Z,11.23
2018-08-03T10:12:41.928Z,11.53
2018-08-03T10:15:10.745Z,10.38
2018-08-03T10:17:39.579Z,10.93
2018-08-03T10:20:08.780Z,11.45
2018-08-03T10:22:38.393Z,11.17
2018-08-03T10:25:07.269Z,11.83
2018-08-03T10:27:36.160Z,11.23
2018-08-03T10:30:05.747Z,11.78
2018-08-03T10:32:35.032Z,11.10
2018-08-03T10:35:04.780Z,11.13
2018-08-03T10:37:33.734Z,11.22
2018-08-03T10:40:09.257Z,11.60
2018-08-03T10:42:38.102Z,11.77
2018-08-03T10:45:06.951Z,12.40
2018-08-03T10:47:35.783Z,12.31
2018-08-03T10:50:04.636Z,12.77
2018-08-03T10:52:33.488Z,12.48
2018-08-03T10:55:02.347Z,12.04
2018-08-03T10:57:31.228Z,11.74
2018-08-03T11:00:00.119Z,11.61
2018-08-03T11:02:29.003Z,11.33
2018-08-03T11:04:57.846Z,11.61
2018-08-03T11:07:26.710Z,12.19
2018-08-03T11:09:55.590Z,11.27
2018-08-03T11:12:24.506Z,11.59
2018-08-03T11:14:53.323Z,11.50
2018-08-03T11:17:22.170Z,11.31
2018-08-03T11:19:51.014Z,11.98
2018-08-03T11:22:19.890Z,12.30
2018-08-03T11:24:48.890Z,12.36
2018-08-03T11:27:17.736Z,12.26
2018-08-03T11:29:46.665Z,11.41
2018-08-03T11:32:15.451Z,11.78
2018-08-03T11:34:44.321Z,11.46
2018-08-03T11:37:13.165Z,11.58
2018-08-03T11:39:42.012Z,10.93
2018-08-03T11:42:10.871Z,11.40
2018-08-03T11:44:40.408Z,11.38
2018-08-03T11:47:10.634Z,12.00
2018-08-03T11:49:40.377Z,11.68
2018-08-03T11:52:10.399Z,11.60
2018-08-03T11:54:40.332Z,11.95
2018-08-03T11:57:09.122Z,11.85
2018-08-03T11:59:37.949Z,12.58
2018-08-03T12:02:06.840Z,12.69
2018-08-03T12:04:35.710Z,13.17
2018-08-03T12:07:04.630Z,13.75
2018-08-03T12:09:33.509Z,14.63
2018-08-03T12:12:02.409Z,14.27
2018-08-03T12:14:31.290Z,14.29
2018-08-03T12:17:00.181Z,14.26
2018-08-03T12:19:29.081Z,14.80
2018-08-03T12:21:58.073Z,14.75
2018-08-03T12:24:27.036Z,15.17
2018-08-03T12:26:55.882Z,15.83
2018-08-03T12:29:24.740Z,16.01
2018-08-03T12:31:53.837Z,16.98
2018-08-03T12:34:22.743Z,16.50
2018-08-03T12:36:51.918Z,16.42
2018-08-03T12:39:21.110Z,16.62
2018-08-03T12:41:50.005Z,16.81
2018-08-03T12:44:19.066Z,16.63
2018-08-03T12:46:47.889Z,16.82
2018-08-03T12:49:17.085Z,16.39
2018-08-03T12:51:46.001Z,16.90
2018-08-03T12:54:14.778Z,17.04
2018-08-03T12:56:43.742Z,17.31
2018-08-03T12:59:12.913Z,17.30
2018-08-03T13:01:41.883Z,17.22
2018-08-03T13:04:10.754Z,17.10
2018-08-03T13:06:39.711Z,17.10
2018-08-03T13:09:08.541Z,17.29
2018-08-03T13:11:37.403Z,17.70
2018-08-03T13:14:06.341Z,17.06
2018-08-03T13:16:35.183Z,17.57
2018-08-03T13:19:04.020Z,18.05
2018-08-03T13:21:37.649Z,17.70
2018-08-03T13:24:06.662Z,17.87
2018-08-03T13:26:35.561Z,18.00
2018-08-03T13:29:04.426Z,17.69
2018-08-03T13:31:33.309Z,17.55
2018-08-03T13:34:02.147Z,18.39
2018-08-03T13:36:31.715Z,18.23
2018-08-03T13:39:00.691Z,18.70
2018-08-03T13:41:29.488Z,17.93
2018-08-03T13:43:58.348Z,17.66
2018-08-03T13:46:27.183Z,18.01
2018-08-03T13:48:56.044Z,18.23
2018-08-03T13:51:24.893Z,17.85
2018-08-03T13:53:55.248Z,17.75
2018-08-03T13:56:24.173Z,18.14
2018-08-03T13:58:53.062Z,19.31
2018-08-03T14:02:17.122Z,19.08
2018-08-03T14:04:46.083Z,19.32
2018-08-03T14:07:14.943Z,19.10
2018-08-03T14:09:43.783Z,19.11
2018-08-03T14:12:12.792Z,19.25
2018-08-03T14:14:42.098Z,19.99
2018-08-03T14:17:11.391Z,20.09
2018-08-03T14:19:40.890Z,20.21
2018-08-03T14:22:09.777Z,20.56
2018-08-03T14:24:38.576Z,20.22
2018-08-03T14:27:07.541Z,20.48
2018-08-03T14:29:36.404Z,20.28
2018-08-03T14:32:05.863Z,20.63
2018-08-03T14:34:34.794Z,20.77
2018-08-03T14:37:03.592Z,21.29
2018-08-03T14:39:32.472Z,21.37
2018-08-03T14:42:01.314Z,21.84
2018-08-03T14:44:30.178Z,21.78
2018-08-03T14:46:59.462Z,21.83
2018-08-03T14:49:28.343Z,22.28
2018-08-03T14:51:57.163Z,22.07
2018-08-03T14:54:26.040Z,22.61
2018-08-03T14:56:55.075Z,23.26
2018-08-03T14:59:24.098Z,22.58
2018-08-03T15:01:53.140Z,22.94
2018-08-03T15:04:22.046Z,23.42
2018-08-03T15:06:50.985Z,23.73
2018-08-03T15:09:19.807Z,23.45
2018-08-03T15:11:48.654Z,23.50
2018-08-03T15:14:17.499Z,23.87
2018-08-03T15:16:46.373Z,23.99
2018-08-03T15:19:18.302Z,23.50
2018-08-03T15:21:47.150Z,23.42
2018-08-03T15:24:16.045Z,23.03
2018-08-03T15:26:44.922Z,23.07
2018-08-03T15:29:13.816Z,22.96
2018-08-03T15:31:42.680Z,23.11
2018-08-03T15:34:11.547Z,23.25
2018-08-03T15:36:40.385Z,23.94
2018-08-03T15:39:10.216Z,23.88
2018-08-03T15:41:39.200Z,24.10
2018-08-03T15:44:08.094Z,24.15
2018-08-03T15:46:37.013Z,23.77
2018-08-03T15:49:05.869Z,24.19
2018-08-03T15:51:34.757Z,23.53
2018-08-03T15:54:03.630Z,23.51
2018-08-03T15:56:32.494Z,23.57
2018-08-03T15:59:01.469Z,23.25
2018-08-03T16:01:30.354Z,23.38
2018-08-03T16:03:59.620Z,23.65
2018-08-03T16:06:28.428Z,23.35
2018-08-03T16:08:57.311Z,23.37
2018-08-03T16:11:26.223Z,23.41
2018-08-03T16:13:55.082Z,23.04
2018-08-03T16:16:23.950Z,23.21
2018-08-03T16:18:52.855Z,22.98
2018-08-03T16:21:21.730Z,22.66
2018-08-03T16:23:50.584Z,22.66
2018-08-03T16:26:19.523Z,22.71
2018-08-03T16:28:48.416Z,22.56
2018-08-03T16:31:17.536Z,22.67
2018-08-03T16:33:46.384Z,23.39
2018-08-03T16:36:15.225Z,22.18
2018-08-03T16:38:44.109Z,22.34
2018-08-03T16:41:12.953Z,22.68
2018-08-03T16:43:42.352Z,21.90
2018-08-03T16:46:11.270Z,21.73
2018-08-03T16:48:40.145Z,22.33
2018-08-03T16:51:09.005Z,21.83
2018-08-03T16:53:37.984Z,21.44
2018-08-03T16:56:06.819Z,20.88
2018-08-03T16:58:35.740Z,20.93
2018-08-03T17:01:04.634Z,21.10
2018-08-03T17:03:33.737Z,21.13
2018-08-03T17:06:02.718Z,21.17
2018-08-03T17:08:31.861Z,21.51
2018-08-03T17:11:07.472Z,21.28
2018-08-03T17:13:36.409Z,21.12
2018-08-03T17:16:06.149Z,20.90
2018-08-03T17:18:35.101Z,21.16
2018-08-03T17:21:04.083Z,21.14
2018-08-03T17:23:33.045Z,20.98
2018-08-03T17:26:02.081Z,20.89
2018-08-03T17:28:30.940Z,20.84
2018-08-03T17:30:59.845Z,20.79
2018-08-03T17:33:28.856Z,21.33
2018-08-03T17:35:57.941Z,20.52
2018-08-03T17:38:26.783Z,20.71
2018-08-03T17:40:55.767Z,20.76
2018-08-03T17:43:24.630Z,20.79
2018-08-03T17:45:53.531Z,21.16
2018-08-03T17:48:22.480Z,21.61
2018-08-03T17:50:51.388Z,22.04
2018-08-03T17:53:20.234Z,22.33
2018-08-03T17:55:49.256Z,22.35
2018-08-03T17:58:18.283Z,22.48
2018-08-03T18:00:47.088Z,22.56
2018-08-03T18:03:16.020Z,23.29
2018-08-03T18:05:45.012Z,23.76
2018-08-03T18:08:14.065Z,24.18
2018-08-03T18:10:43.102Z,24.64
2018-08-03T18:13:12.189Z,24.58
2018-08-03T18:15:41.123Z,25.08
2018-08-03T18:18:10.105Z,25.51
2018-08-03T18:20:38.919Z,25.76
2018-08-03T18:23:07.779Z,26.16
2018-08-03T18:25:36.716Z,26.78
2018-08-03T18:28:05.633Z,26.82
2018-08-03T18:30:34.433Z,27.68
2018-08-03T18:33:03.312Z,27.70
2018-08-03T18:35:32.200Z,28.32
2018-08-03T18:38:01.091Z,28.55
2018-08-03T18:40:33.352Z,29.19
2018-08-03T18:43:02.157Z,29.69
2018-08-03T18:45:30.999Z,30.14
2018-08-03T18:47:59.891Z,30.40
2018-08-03T18:50:28.757Z,30.70
2018-08-03T18:52:57.633Z,31.35
2018-08-03T18:55:26.507Z,31.65
2018-08-03T18:57:55.461Z,31.92
2018-08-03T19:00:24.449Z,32.05
2018-08-03T19:02:53.575Z,32.61
2018-08-03T19:05:22.601Z,33.00
2018-08-03T19:07:51.456Z,33.44
2018-08-03T19:10:20.307Z,33.53
2018-08-03T19:12:49.238Z,33.78
2018-08-03T19:15:18.035Z,34.19
2018-08-03T19:17:46.869Z,34.62
2018-08-03T19:20:15.711Z,34.93
2018-08-03T19:22:44.607Z,35.70
2018-08-03T19:25:13.641Z,35.97
2018-08-03T19:27:42.521Z,36.07
2018-08-03T19:30:11.424Z,36.73
2018-08-03T19:32:40.296Z,37.18
2018-08-03T19:35:09.166Z,37.27
2018-08-03T19:37:38.045Z,37.50
2018-08-03T19:40:07.464Z,37.70
2018-08-03T19:42:36.379Z,37.98
2018-08-03T19:45:06.019Z,38.06
2018-08-03T19:47:34.965Z,38.29
2018-08-03T19:50:03.916Z,38.80
2018-08-03T19:52:32.819Z,39.06
2018-08-03T19:55:01.656Z,39.71
2018-08-03T19:57:30.531Z,39.81
2018-08-03T19:59:59.421Z,40.15
2018-08-03T20:02:28.296Z,40.81
2018-08-03T20:04:57.261Z,41.10
2018-08-03T20:07:26.300Z,41.43
2018-08-03T20:09:55.792Z,42.24
2018-08-03T20:12:25.130Z,42.18
2018-08-03T20:14:54.234Z,41.93
2018-08-03T20:17:23.296Z,42.02
2018-08-03T20:19:52.180Z,42.49
2018-08-03T20:22:21.068Z,42.58
2018-08-03T20:24:49.938Z,42.63
2018-08-03T20:27:18.837Z,43.31
2018-08-03T20:29:47.691Z,43.76
2018-08-03T20:32:16.708Z,43.93
2018-08-03T20:34:45.602Z,43.63
2018-08-03T20:37:14.533Z,43.86
2018-08-03T20:39:43.382Z,44.17
2018-08-03T20:42:12.288Z,44.38
2018-08-03T20:44:41.306Z,44.52
2018-08-03T20:47:10.057Z,45.18
2018-08-03T20:49:38.941Z,45.14
2018-08-03T20:52:10.381Z,45.48
2018-08-03T20:54:39.202Z,45.45
2018-08-03T20:57:08.083Z,45.30
2018-08-03T20:59:36.948Z,45.63
2018-08-03T21:02:05.965Z,45.35
2018-08-03T21:04:35.166Z,45.45
2018-08-03T21:07:04.170Z,44.97
2018-08-03T21:09:33.182Z,45.21
2018-08-03T21:12:02.106Z,44.89
2018-08-03T21:14:31.093Z,44.90
2018-08-03T21:17:00.025Z,44.87
2018-08-03T21:19:29.157Z,44.72
2018-08-03T21:21:58.012Z,44.24
2018-08-03T21:24:26.905Z,44.09
2018-08-03T21:26:55.745Z,44.08
2018-08-03T21:29:24.589Z,43.90
2018-08-03T21:31:53.509Z,43.62
2018-08-03T21:34:22.285Z,43.51
2018-08-03T21:36:51.339Z,43.52
2018-08-03T21:39:20.165Z,43.05
2018-08-03T21:41:49.065Z,43.45
2018-08-03T21:44:17.917Z,43.21
2018-08-03T21:46:46.837Z,43.38
2018-08-03T21:49:15.712Z,43.09
2018-08-03T21:51:44.538Z,43.13
2018-08-03T21:54:13.412Z,42.58
2018-08-03T21:56:42.261Z,43.02
2018-08-03T21:59:11.140Z,43.01
2018-08-03T22:01:40.084Z,43.08
2018-08-03T22:04:09.246Z,42.87
2018-08-03T22:06:38.230Z,43.04
2018-08-03T22:09:08.539Z,43.07
2018-08-03T22:11:37.484Z,43.10
2018-08-03T22:14:06.833Z,43.09
2018-08-03T22:16:35.679Z,43.30
2018-08-03T22:19:04.572Z,43.40
2018-08-03T22:21:33.538Z,43.39
2018-08-03T22:24:02.446Z,43.79
2018-08-03T22:26:31.282Z,43.48
2018-08-03T22:29:00.166Z,43.82
2018-08-03T22:31:29.086Z,43.58
2018-08-03T22:33:57.865Z,43.67
2018-08-03T22:36:26.709Z,43.69
2018-08-03T22:38:55.552Z,43.87
2018-08-03T22:41:30.578Z,43.98
2018-08-03T22:43:59.420Z,43.95
2018-08-03T22:46:28.271Z,44.04
2018-08-03T22:48:57.109Z,44.04
2018-08-03T22:51:25.940Z,43.84
2018-08-03T22:53:55.015Z,44.06
2018-08-03T22:56:23.911Z,44.07
2018-08-03T22:58:52.896Z,43.84
2018-08-03T23:01:21.839Z,43.97
2018-08-03T23:03:53.779Z,44.69
2018-08-03T23:06:22.616Z,44.49
2018-08-03T23:08:51.462Z,44.40
2018-08-03T23:11:20.354Z,44.63
2018-08-03T23:13:49.231Z,44.27
2018-08-03T23:16:18.064Z,44.70
2018-08-03T23:18:47.090Z,44.57
2018-08-03T23:21:15.921Z,44.42
2018-08-03T23:23:44.776Z,44.42
2018-08-03T23:26:13.752Z,45.04
2018-08-03T23:28:42.596Z,44.77
2018-08-03T23:31:11.456Z,44.90
2018-08-03T23:33:40.301Z,44.77
2018-08-03T23:36:09.122Z,45.04
2018-08-03T23:38:37.967Z,45.13
2018-08-03T23:41:06.819Z,45.16
2018-08-03T23:43:35.694Z,45.06
2018-08-03T23:46:04.587Z,44.97
2018-08-03T23:48:51.234Z,45.10
2018-08-03T23:51:20.097Z,45.08
2018-08-03T23:53:48.949Z,45.05
2018-08-03T23:56:17.788Z,45.25
2018-08-03T23:58:46.633Z,45.33
